Detall de PIREP

Printer-friendly versionPDF version

[2010/11/02 10:12:00]
Flight IATA:CT3123
Pilot Number:011
Company ICAO:CAT
Aircraft Type:F28/A
PAX:85
Departing Airport: LEZG
Destination Airport: LEPA
Alternate Airport:LEBL
Online: VATSIM
Route:GRAUS G23 BCN/N0300F130 W7 LORES
Flight Level:FL220
No Slew and time accel
No pause
Crash detect
Detect pilot in Cockpit between each 30 and 45 minutes
10:12 Zero fuel Weight: 60656 Lbs, Fuel Weight: 9113 Lbs
10:12 VATSIM:LEZG 021000Z 31024KT 9999 FEW060 16/07 Q1020
10:12 VATSIM:LEPA 021000Z 25003KT 220V290 9999 FEW030 19/14 Q1015 NOSIG
10:16 Parking Brakes off
10:23 Take-off
10:23 Take off Weight: 69348 Lbs
10:23 Wind: 313º @ 024 Knots Heading: 300º
10:23 POS N41º 39´ 38´´ W001º 01´ 14´´
10:23 Flaps:2 at 156 Knots
10:23 Gear Up: 157 Knots
10:24 Flaps:3 at 218 Knots
10:24 Flaps:2 at 219 Knots
10:24 Flaps:1 at 218 Knots
10:24 Flaps:0 at 226 Knots
10:36 TOC
10:36 FuelWeight: 6935 Lb
10:38 Wind:295º@046 Knots Heading: 073º Ground Speed: 451 Knots Altitude 22201 ft
10:53 Wind:308º@033 Knots Heading: 152º Ground Speed: 441 Knots Altitude 23077 ft
10:55 TOD
10:55 Fuel Weight: 5310 Lb
11:08 Wind:248º@007 Knots Heading: 185º Ground Speed: 233 Knots Altitude 5003 ft
11:08 Flaps:1 at 220 Knots
11:09 Flaps:2 at 204 Knots
11:10 Flaps:3 at 188 Knots
11:10 Flaps:4 at 164 Knots
11:10 Gear Down: 162 Knots
11:11 Flaps:5 at 143 Knots
11:16 TouchDown:Rate -186 ft/min Speed: 119 Knots
11:16 VATSIM:LEPA 021100Z 25003KT 210V300 9999 FEW030 20/14 Q1016 NOSIG
11:16 Land
11:16 Wind:219º@003 Knots
11:16 Heading: 237º
11:16 Flight Duration: 00:53
11:16 Landing Weight: 65169 Lbs
11:16 POS N39º 33´ 19´´ E002º 43´ 41´´
11:18 Parking brakes on
11:18 Block to Block Duration: 01:02
11:18 Final Fuel: 4429 Lbls
11:18 Spent Fuel: 4684 Lbls
11:18Flight Length: 130 NM
11:18 TOD Land Length: 24 NM

Exportar CSV

Powered by Drupal - Modified by Danger4k